Terminal Aerodrome Forecast
Issued by NWS Wilmington, OH

Current Version | Previous Version | Graphics & Text | Print | Product List | Glossary On
Versions: 1 2 3 4 5 6 7 8 9 10 11 12 13 14 15 16 17 18 19 20 21 22 23 24 25
000
FTUS41 KILN 261700
TAFILN
TAF
KILN 261735Z 2618/2718 19015G23KT P6SM VCTS BKN045CB
      TEMPO 2620/2623 3SM TSRA BKN030CB
     FM270200 21012KT P6SM SCT040 BKN250
     FM270800 22008KT P6SM BKN010
     FM271400 22012KT P6SM FEW030=

USA.gov is the U.S. government's official web portal to all federal, state and local government web resources and services.